createdAt,value
2019-02-02T00:04:12.534Z,28.25
2019-02-02T00:09:21.554Z,29.91
2019-02-02T00:14:30.474Z,27.46
2019-02-02T00:19:39.397Z,29.41
2019-02-02T00:24:48.339Z,26.03
2019-02-02T00:29:57.345Z,27.63
2019-02-02T00:35:06.286Z,26.76
2019-02-02T00:40:15.294Z,27.51
2019-02-02T00:45:24.211Z,28.57
2019-02-02T00:50:33.267Z,30.10
2019-02-02T00:55:42.234Z,31.29
2019-02-02T01:00:51.259Z,30.18
2019-02-02T01:06:00.202Z,28.75
2019-02-02T01:11:09.255Z,27.54
2019-02-02T01:16:18.196Z,30.77
2019-02-02T01:21:27.218Z,30.73
2019-02-02T01:26:36.151Z,29.99
2019-02-02T01:31:45.173Z,30.45
2019-02-02T01:36:54.104Z,31.99
2019-02-02T01:42:03.112Z,31.25
2019-02-02T01:47:12.078Z,31.63
2019-02-02T01:52:21.058Z,29.22
2019-02-02T01:57:30.191Z,31.83
2019-02-02T02:02:39.126Z,30.22
2019-02-02T02:07:48.151Z,29.51
2019-02-02T02:12:57.067Z,30.50
2019-02-02T02:18:06.074Z,29.98
2019-02-02T02:23:15.040Z,31.04
2019-02-02T02:28:28.165Z,29.91
2019-02-02T02:33:32.504Z,29.97
2019-02-02T02:38:41.520Z,30.09
2019-02-02T02:43:50.569Z,33.57
2019-02-02T02:48:59.421Z,36.28
2019-02-02T02:54:08.363Z,34.05
2019-02-02T02:59:17.351Z,32.38
2019-02-02T03:04:26.379Z,35.23
2019-02-02T03:09:35.329Z,34.98
2019-02-02T03:14:44.255Z,35.36
2019-02-02T03:19:53.184Z,32.34
2019-02-02T03:25:02.158Z,32.44
2019-02-02T03:30:11.087Z,31.43
2019-02-02T03:35:20.032Z,34.63
2019-02-02T03:40:28.947Z,34.89
2019-02-02T03:45:40.524Z,30.78
2019-02-02T03:50:46.422Z,32.09
2019-02-02T03:55:55.390Z,32.28
2019-02-02T04:01:04.358Z,31.81
2019-02-02T04:06:13.305Z,33.01
2019-02-02T04:11:22.282Z,32.72
2019-02-02T04:16:31.211Z,34.03
2019-02-02T04:21:40.205Z,33.92
2019-02-02T04:26:49.124Z,36.03
2019-02-02T04:31:58.078Z,37.51
2019-02-02T04:37:07.006Z,40.33
2019-02-02T04:42:15.974Z,39.52
2019-02-02T04:47:24.886Z,39.29
2019-02-02T04:52:33.900Z,38.17
2019-02-02T04:57:42.834Z,36.87
2019-02-02T05:02:51.831Z,37.04
2019-02-02T05:08:00.746Z,34.45
2019-02-02T05:13:09.778Z,34.78
2019-02-02T05:18:18.750Z,35.44
2019-02-02T05:23:27.754Z,34.72
2019-02-02T05:28:36.674Z,35.72
2019-02-02T05:33:45.642Z,35.89
2019-02-02T05:38:54.602Z,35.23
2019-02-02T05:44:03.602Z,34.46
2019-02-02T05:49:12.526Z,37.05
2019-02-02T05:54:21.459Z,37.36
2019-02-02T05:59:30.472Z,34.78
2019-02-02T06:04:39.390Z,40.97
2019-02-02T06:09:48.414Z,40.98
2019-02-02T06:14:57.326Z,43.23
2019-02-02T06:20:06.249Z,43.45
2019-02-02T06:25:15.191Z,40.87
2019-02-02T06:30:24.247Z,40.09
2019-02-02T06:35:33.178Z,40.23
2019-02-02T06:40:42.105Z,41.42
2019-02-02T06:45:51.038Z,43.80
2019-02-02T06:51:00.014Z,48.35
2019-02-02T06:56:08.946Z,49.22
2019-02-02T07:01:17.962Z,43.56
2019-02-02T07:06:26.893Z,45.81
2019-02-02T07:11:35.902Z,43.84
2019-02-02T07:16:44.834Z,39.33
2019-02-02T07:21:53.848Z,42.23
2019-02-02T07:27:02.762Z,44.10
2019-02-02T07:32:11.757Z,46.21
2019-02-02T07:37:20.710Z,46.67
2019-02-02T07:42:29.710Z,48.23
2019-02-02T07:47:38.671Z,43.93
2019-02-02T07:52:47.650Z,46.72
2019-02-02T07:57:56.574Z,43.09
2019-02-02T08:03:05.562Z,44.87
2019-02-02T08:08:17.040Z,48.12
2019-02-02T08:13:23.002Z,44.83
2019-02-02T08:18:31.926Z,47.88
2019-02-02T08:23:40.887Z,46.90
2019-02-02T08:28:49.881Z,43.70
2019-02-02T08:33:58.798Z,48.65
2019-02-02T08:39:07.761Z,47.19
2019-02-02T08:44:16.719Z,49.45
2019-02-02T08:49:25.690Z,46.26
2019-02-02T08:54:34.620Z,49.07
2019-02-02T08:59:43.586Z,47.49
2019-02-02T09:04:52.534Z,51.68
2019-02-02T09:10:01.532Z,48.20
2019-02-02T09:15:10.455Z,53.35
2019-02-02T09:20:19.511Z,50.78
2019-02-02T09:25:28.465Z,49.91
2019-02-02T09:30:37.434Z,53.35
2019-02-02T09:35:46.387Z,51.91
2019-02-02T09:40:55.415Z,54.31
2019-02-02T09:46:04.778Z,52.24
2019-02-02T09:51:12.875Z,49.78
2019-02-02T09:56:21.766Z,53.28
2019-02-02T10:01:30.834Z,52.03
2019-02-02T10:06:39.762Z,51.67
2019-02-02T10:11:48.800Z,50.79
2019-02-02T10:16:57.734Z,49.60
2019-02-02T10:22:06.726Z,47.00
2019-02-02T10:27:15.669Z,46.15
2019-02-02T10:32:24.770Z,49.37
2019-02-02T10:37:33.606Z,51.58
2019-02-02T10:42:42.602Z,48.21
2019-02-02T10:47:51.523Z,46.27
2019-02-02T10:53:00.452Z,42.69
2019-02-02T10:58:09.375Z,43.88
2019-02-02T11:03:18.498Z,45.35
2019-02-02T11:08:27.560Z,43.88
2019-02-02T11:13:36.381Z,44.94
2019-02-02T11:18:45.299Z,47.67
2019-02-02T11:23:54.314Z,32.34
2019-02-02T11:29:03.375Z,41.62
2019-02-02T11:34:12.276Z,43.14
2019-02-02T11:39:21.230Z,37.98
2019-02-02T11:44:30.243Z,37.35
2019-02-02T11:49:39.163Z,39.34
2019-02-02T11:54:48.131Z,41.82
2019-02-02T11:59:57.062Z,39.19
2019-02-02T12:05:06.071Z,33.50
2019-02-02T12:10:14.990Z,37.74
2019-02-02T12:15:23.951Z,34.32
2019-02-02T12:20:33.492Z,34.48
2019-02-02T12:25:41.421Z,37.73
2019-02-02T12:30:50.350Z,38.82
2019-02-02T12:35:59.380Z,36.67
2019-02-02T12:41:08.327Z,38.73
2019-02-02T12:46:17.282Z,34.95
2019-02-02T12:51:26.562Z,37.37
2019-02-02T12:56:35.608Z,32.43
2019-02-02T13:01:44.535Z,35.85
2019-02-02T13:06:53.494Z,36.59
2019-02-02T13:12:02.422Z,35.26
2019-02-02T13:17:11.394Z,30.20
2019-02-02T13:22:20.340Z,33.46
2019-02-02T13:27:29.342Z,31.09
2019-02-02T13:32:49.132Z,34.41
2019-02-02T13:37:46.778Z,33.46
2019-02-02T13:42:55.707Z,35.76
2019-02-02T13:48:04.649Z,36.57
2019-02-02T13:53:13.566Z,32.38
2019-02-02T13:58:22.574Z,34.56
2019-02-02T14:03:31.507Z,36.27
2019-02-02T14:08:40.498Z,34.43
2019-02-02T14:13:49.466Z,35.26
2019-02-02T14:18:58.420Z,35.72
2019-02-02T14:24:07.614Z,35.56
2019-02-02T14:29:16.986Z,34.81
2019-02-02T14:34:26.135Z,32.22
2019-02-02T14:39:35.235Z,32.32
2019-02-02T14:44:44.306Z,36.29
2019-02-02T14:49:53.472Z,39.36
2019-02-02T14:55:02.379Z,38.54
2019-02-02T15:00:11.395Z,36.10
2019-02-02T15:05:20.319Z,38.26
2019-02-02T15:10:29.286Z,38.31
2019-02-02T15:15:38.223Z,38.23
2019-02-02T15:20:47.193Z,35.18
2019-02-02T15:25:56.120Z,36.52
2019-02-02T15:31:05.151Z,34.47
2019-02-02T15:36:14.058Z,37.39
2019-02-02T15:41:23.028Z,38.27
2019-02-02T15:46:31.974Z,39.82
2019-02-02T15:51:40.966Z,39.35
2019-02-02T15:56:49.893Z,39.66
2019-02-02T16:01:58.855Z,38.37
2019-02-02T16:07:07.807Z,38.10
2019-02-02T16:12:16.786Z,37.12
2019-02-02T16:17:25.719Z,43.26
2019-02-02T16:22:34.724Z,37.98
2019-02-02T16:27:43.653Z,36.75
2019-02-02T16:32:52.594Z,35.07
2019-02-02T16:38:01.549Z,38.34
2019-02-02T16:43:10.590Z,38.49
2019-02-02T16:48:19.531Z,36.74
2019-02-02T16:53:28.574Z,38.90
2019-02-02T16:58:37.756Z,40.29
2019-02-02T17:03:46.510Z,39.65
2019-02-02T17:08:55.432Z,36.96
2019-02-02T17:14:04.427Z,38.74
2019-02-02T17:19:13.525Z,38.69
2019-02-02T17:24:22.580Z,39.43
2019-02-02T17:29:31.530Z,37.79
2019-02-02T17:34:40.889Z,40.36
2019-02-02T17:39:50.046Z,39.52
2019-02-02T17:44:59.119Z,38.15
2019-02-02T17:50:08.046Z,41.30
2019-02-02T17:55:17.107Z,38.15
2019-02-02T18:00:26.066Z,35.83
2019-02-02T18:05:35.026Z,32.34
2019-02-02T18:10:43.984Z,34.90
2019-02-02T18:15:52.978Z,33.62
2019-02-02T18:21:01.931Z,37.59
2019-02-02T18:26:10.926Z,34.72
2019-02-02T18:31:19.875Z,40.69
2019-02-02T18:36:28.906Z,42.19
2019-02-02T18:41:37.843Z,39.45
2019-02-02T18:46:46.872Z,38.63
2019-02-02T18:51:55.794Z,39.99
2019-02-02T18:57:04.795Z,41.69
2019-02-02T19:02:13.698Z,39.32
2019-02-02T19:07:22.754Z,41.96
2019-02-02T19:12:31.720Z,40.30
2019-02-02T19:17:40.650Z,40.66
2019-02-02T19:22:49.613Z,44.33
2019-02-02T19:27:58.667Z,43.94
2019-02-02T19:33:07.626Z,41.46
2019-02-02T19:38:16.622Z,45.50
2019-02-02T19:43:25.541Z,45.25
2019-02-02T19:48:34.547Z,43.88
2019-02-02T19:53:43.500Z,43.35
2019-02-02T19:58:52.435Z,46.42
2019-02-02T20:04:01.410Z,46.39
2019-02-02T20:09:10.350Z,47.04
2019-02-02T20:14:19.974Z,50.89
2019-02-02T20:19:28.907Z,46.37
2019-02-02T20:24:37.859Z,40.29
2019-02-02T20:29:46.809Z,42.41
2019-02-02T20:34:55.734Z,44.96
2019-02-02T20:40:04.721Z,46.41
2019-02-02T20:45:13.618Z,48.44
2019-02-02T20:50:22.595Z,47.13
2019-02-02T20:55:31.514Z,51.03
2019-02-02T21:00:40.480Z,45.96
2019-02-02T21:05:52.581Z,47.82
2019-02-02T21:10:57.910Z,47.73
2019-02-02T21:16:06.882Z,48.97
2019-02-02T21:21:16.094Z,52.11
2019-02-02T21:26:25.043Z,49.67
2019-02-02T21:31:34.018Z,52.89
2019-02-02T21:36:42.950Z,55.40
2019-02-02T21:41:52.022Z,53.11
2019-02-02T21:47:00.967Z,61.64
2019-02-02T21:52:09.938Z,65.74
2019-02-02T21:57:18.898Z,66.91
2019-02-02T22:02:27.909Z,65.79
2019-02-02T22:07:36.822Z,65.84
2019-02-02T22:12:45.911Z,65.83
2019-02-02T22:17:54.219Z,61.72
2019-02-02T22:23:03.178Z,67.72
2019-02-02T22:28:12.166Z,68.69
2019-02-02T22:33:21.120Z,66.36
2019-02-02T22:38:30.078Z,69.84
2019-02-02T22:43:39.034Z,75.07
2019-02-02T22:48:48.238Z,74.75
2019-02-02T22:53:57.194Z,64.28
2019-02-02T22:59:06.177Z,63.92
2019-02-02T23:04:15.134Z,63.16
2019-02-02T23:09:24.095Z,60.41
2019-02-02T23:14:33.002Z,55.57
2019-02-02T23:19:41.978Z,54.17
2019-02-02T23:24:50.902Z,57.17
2019-02-02T23:29:59.851Z,79.57
2019-02-02T23:35:08.811Z,75.23
2019-02-02T23:40:17.786Z,74.90
2019-02-02T23:45:26.794Z,73.02
2019-02-02T23:50:35.756Z,71.31
2019-02-02T23:55:44.710Z,70.16
